»·PEaware :: N124AG KOXR-KSBD

N124AG :: KOXR-KSBD

FLIGHT INFORMATION

Flight Status: Arrived
Operator: Privately registered:
United States
More flights under this callsign
Pilot: Michael M. (17510)
Aircraft: PIPER PA-31/31P NAVAJO CHIEFTAIN
(PA31)
More flights by this aircraft type
Origin: KOXR Oxnard
United States
Destination: KSBD San Bernardino Intl
United States
More flights between these airports :: More routes between these airports
Route: +VTU044R GINNA V326 VNY V186 PDZ
File this flight plan on PilotEdge
Remarks: TEC Route VTUP15 - Req Vectors to Final ILS Rwy 6
Altitude:
(Current/Filed)
5,000ft
Speed:
(Current/Filed)
180kts
Departed: 19-Sep-18 11:53 AM
Arrived: 19-Sep-18 12:38 PM
Distance/Time
Traveled:
98nm/0:45
Distance/Time
To Go:
Arrived

Flight Plot

Page will automatically refresh every two minutes.


Map Options




Map Legend


Flown Route
Filed Route
Departure Airport
Arrival Airport
Navaid (VOR, NDB)
Fix

Horizontal Profiles

Position Reports

Time Latitude Longitude Heading Altitude Ground
Speed
19-Sep-18 11:44 34.199059 -119.206318 358 39ft 0kts
19-Sep-18 11:45 34.199059 -119.206318 358 39ft 0kts
19-Sep-18 11:46 34.199059 -119.206318 358 39ft 0kts
19-Sep-18 11:47 34.199059 -119.206318 358 39ft 0kts
19-Sep-18 11:48 34.199059 -119.206318 358 39ft 0kts
19-Sep-18 11:49 34.199059 -119.206318 358 39ft 0kts
19-Sep-18 11:50 34.199059 -119.206318 358 39ft 0kts
19-Sep-18 11:51 34.199752 -119.203174 90 39ft 15kts
19-Sep-18 11:52 34.199721 -119.198597 90 39ft 16kts
19-Sep-18 11:53 34.199927 -119.197537 2 39ft 0kts
19-Sep-18 11:54 34.200551 -119.197546 345 39ft 10kts
19-Sep-18 11:55 34.200796 -119.207541 270 39ft 102kts
19-Sep-18 11:56 34.200063 -119.246717 267 952ft 130kts
19-Sep-18 11:57 34.198097 -119.293084 267 1963ft 143kts
19-Sep-18 11:58 34.195951 -119.340858 267 2959ft 147kts
19-Sep-18 11:59 34.193322 -119.392816 267 3973ft 159kts
19-Sep-18 12:00 34.190258 -119.446325 267 4954ft 161kts
19-Sep-18 12:01 34.214317 -119.478996 37 5004ft 191kts
19-Sep-18 12:02 34.226175 -119.416241 82 5000ft 198kts
19-Sep-18 12:03 34.231018 -119.349686 88 5000ft 200kts
19-Sep-18 12:04 34.231899 -119.282103 88 5000ft 201kts
19-Sep-18 12:05 34.231797 -119.214509 89 5000ft 201kts
19-Sep-18 12:06 34.231161 -119.146968 89 4999ft 198kts
19-Sep-18 12:07 34.230544 -119.081248 89 5000ft 195kts
19-Sep-18 12:08 34.230261 -119.015812 89 5000ft 194kts
19-Sep-18 12:09 34.230143 -118.950416 89 5000ft 195kts
19-Sep-18 12:10 34.230105 -118.884844 88 5000ft 195kts
19-Sep-18 12:11 34.228981 -118.819134 90 5000ft 195kts
19-Sep-18 12:12 34.227223 -118.753503 90 4999ft 195kts
19-Sep-18 12:13 34.225468 -118.687715 90 4997ft 195kts
19-Sep-18 12:14 34.223729 -118.622373 90 4994ft 195kts
19-Sep-18 12:15 34.221984 -118.556559 90 4992ft 195kts
19-Sep-18 12:16 34.220055 -118.491271 90 4994ft 193kts
19-Sep-18 12:17 34.204021 -118.429937 109 4995ft 190kts
19-Sep-18 12:18 34.187294 -118.369814 109 4997ft 190kts
19-Sep-18 12:19 34.170878 -118.309331 110 4999ft 190kts
19-Sep-18 12:20 34.153682 -118.248692 111 4999ft 191kts
19-Sep-18 12:21 34.136316 -118.187674 111 4999ft 193kts
19-Sep-18 12:22 34.117128 -118.128498 113 4999ft 193kts
19-Sep-18 12:23 34.095387 -118.069018 115 4999ft 194kts
19-Sep-18 12:24 34.074414 -118.008807 112 5003ft 196kts
19-Sep-18 12:25 34.054473 -117.947197 112 4988ft 198kts
19-Sep-18 12:26 34.034353 -117.885157 111 4989ft 198kts
19-Sep-18 12:27 34.016400 -117.822305 102 4987ft 199kts
19-Sep-18 12:28 34.005810 -117.756920 101 4996ft 199kts
19-Sep-18 12:29 33.994603 -117.691274 101 4995ft 199kts
19-Sep-18 12:30 33.985187 -117.625843 90 4966ft 199kts
19-Sep-18 12:31 33.982919 -117.567989 91 3602ft 137kts
19-Sep-18 12:32 33.981040 -117.524400 91 3198ft 136kts
19-Sep-18 12:33 33.981374 -117.475379 59 3192ft 152kts
19-Sep-18 12:34 34.007606 -117.435207 45 3193ft 154kts
19-Sep-18 12:35 34.037402 -117.397758 45 3192ft 155kts
19-Sep-18 12:36 34.058911 -117.355630 66 3044ft 125kts
19-Sep-18 12:37 34.070209 -117.319553 69 2325ft 117kts
19-Sep-18 12:38 34.080531 -117.284749 70 1706ft 105kts
19-Sep-18 12:39 34.090340 -117.251987 70 1174ft 99kts
19-Sep-18 12:40 34.095546 -117.235893 345 1114ft 18kts
19-Sep-18 12:41 34.098237 -117.239624 272 1107ft 20kts
19-Sep-18 12:42 34.097903 -117.241049 299 1104ft 0kts

Navigation Log

Ident Type
Flight plan parsing failed, navigation log unavailable